Time;durP1;ratioP1;P1;durP2;ratioP2;P2;SDS_P1;SDS_P2;PMS_P1;PMS_P2;Temp;Humidity;BMP_temperature;BMP_pressure;BME280_temperature;BME280_humidity;BME280_pressure;Samples;Min_cycle;Max_cycle;Signal;HPM_P1;HPM_P2
2023/09/26 00:02:24;;;;;;;;;16.50;11.00;;;;;19.14;69.19;101670.84;5056624;28;46648;-42
2023/09/26 00:04:49;;;;;;;;;11.67;9.33;;;;;19.09;69.50;101663.31;5056138;28;46003;-42
2023/09/26 00:07:15;;;;;;;;;13.33;11.67;;;;;19.11;69.49;101671.22;5057165;28;45377;-44
2023/09/26 00:09:40;;;;;;;;;14.67;13.33;;;;;19.09;69.22;101666.00;5057573;28;45302;-44
2023/09/26 00:12:05;;;;;;;;;9.67;6.67;;;;;19.06;69.42;101662.81;5057173;28;46269;-44
2023/09/26 00:14:30;;;;;;;;;16.33;12.67;;;;;19.04;69.25;101662.97;5057121;28;45401;-43
2023/09/26 00:16:56;;;;;;;;;10.00;8.00;;;;;19.04;68.79;101665.69;5056864;28;45972;-44
2023/09/26 00:19:21;;;;;;;;;8.00;8.00;;;;;19.03;68.82;101665.88;5057298;28;45296;-43
2023/09/26 00:21:47;;;;;;;;;10.00;8.00;;;;;18.89;68.82;101643.22;5056846;28;45300;-43
2023/09/26 00:24:13;;;;;;;;;12.00;11.67;;;;;18.97;68.79;101655.81;5057067;28;45397;-45
2023/09/26 00:26:38;;;;;;;;;8.50;7.75;;;;;18.95;68.86;101659.50;5039083;28;45466;-43
2023/09/26 00:29:03;;;;;;;;;10.00;10.00;;;;;18.91;68.46;101655.50;5057183;28;45392;-42
2023/09/26 00:31:29;;;;;;;;;9.67;8.67;;;;;18.87;68.34;101658.72;5057170;28;46294;-45
2023/09/26 00:33:54;;;;;;;;;10.00;8.50;;;;;18.85;68.27;101658.09;5057263;28;45414;-42
2023/09/26 00:36:19;;;;;;;;;9.75;8.00;;;;;18.82;67.72;101650.34;5057463;28;45359;-49
2023/09/26 00:38:45;;;;;;;;;8.67;8.67;;;;;18.81;67.63;101659.47;5039299;28;45564;-44
2023/09/26 00:41:10;;;;;;;;;12.33;8.67;;;;;18.78;67.70;101657.94;5056256;28;46310;-44
2023/09/26 00:43:36;;;;;;;;;8.33;7.33;;;;;18.76;67.54;101649.22;5057144;28;45490;-50
2023/09/26 00:46:04;;;;;;;;;9.50;8.75;;;;;18.72;67.72;101647.06;5057161;28;45745;-43
2023/09/26 00:48:30;;;;;;;;;13.00;7.00;;;;;18.74;67.30;101658.47;5057321;28;45392;-44
2023/09/26 00:50:56;;;;;;;;;10.00;8.33;;;;;18.72;67.26;101660.53;5056624;28;46127;-45
2023/09/26 00:53:24;;;;;;;;;6.33;6.33;;;;;18.62;67.05;101636.44;5057083;28;45247;-44
2023/09/26 00:55:53;;;;;;;;;8.67;7.00;;;;;18.66;66.82;101635.91;5056760;28;45330;-45
2023/09/26 00:58:21;;;;;;;;;11.25;9.25;;;;;18.77;66.70;101641.97;5056970;28;45382;-44
2023/09/26 01:00:49;;;;;;;;;8.67;7.33;;;;;18.81;66.60;101662.16;5056718;28;45709;-45
2023/09/26 01:03:16;;;;;;;;;10.33;7.33;;;;;18.80;66.43;101663.19;5038516;28;45244;-42
2023/09/26 01:05:41;;;;;;;;;7.00;7.00;;;;;18.78;66.19;101666.03;5056921;28;45236;-43
2023/09/26 01:08:07;;;;;;;;;12.67;9.00;;;;;18.75;66.51;101657.47;5053736;28;45566;-42
2023/09/26 01:10:33;;;;;;;;;9.33;8.00;;;;;18.75;66.33;101652.94;5056658;28;45689;-42
2023/09/26 01:12:58;;;;;;;;;14.00;8.33;;;;;18.60;66.33;101631.25;5056709;28;45406;-41
2023/09/26 01:15:39;;;;;;;;;12.00;9.00;;;;;18.71;66.08;101648.91;5054421;28;45439;-43
2023/09/26 01:18:14;;;;;;;;;8.75;8.00;;;;;18.68;65.95;101654.63;5056441;28;45372;-44
2023/09/26 01:20:44;;;;;;;;;11.00;7.00;;;;;18.66;65.95;101643.16;5055911;28;45359;-44
2023/09/26 01:23:14;;;;;;;;;7.33;6.67;;;;;18.63;65.70;101643.53;5056129;28;45437;-45
2023/09/26 01:25:40;;;;;;;;;7.67;6.67;;;;;18.61;65.71;101646.41;5056367;28;45386;-45
2023/09/26 01:28:07;;;;;;;;;5.00;5.00;;;;;18.60;66.04;101641.19;5056669;28;45515;-43
2023/09/26 01:30:38;;;;;;;;;10.00;10.00;;;;;18.55;65.83;101639.03;5037924;28;45921;-43
2023/09/26 01:33:08;;;;;;;;;8.33;8.00;;;;;18.44;65.47;101625.94;5056350;28;45271;-43
2023/09/26 01:35:33;;;;;;;;;6.33;6.33;;;;;18.54;65.68;101639.19;5056251;28;45419;-42
2023/09/26 01:37:58;;;;;;;;;10.67;7.00;;;;;18.53;65.78;101643.75;5056467;28;45395;-42
2023/09/26 01:40:24;;;;;;;;;10.33;9.33;;;;;18.51;65.85;101640.41;5056241;28;46153;-43
2023/09/26 01:42:50;;;;;;;;;9.67;7.67;;;;;18.52;65.96;101634.00;5055951;28;45353;-43
2023/09/26 01:45:16;;;;;;;;;6.67;6.67;;;;;18.49;65.77;101620.03;5056298;28;45406;-44
2023/09/26 01:47:47;;;;;;;;;11.33;7.00;;;;;18.48;65.55;101615.66;5056480;28;45411;-44
2023/09/26 01:50:13;;;;;;;;;7.67;7.67;;;;;18.46;65.79;101607.78;5055883;28;47288;-43
2023/09/26 01:52:39;;;;;;;;;7.00;7.00;;;;;18.44;65.43;101610.63;5055836;28;45378;-43
2023/09/26 01:55:06;;;;;;;;;7.33;7.33;;;;;18.40;65.08;101606.59;5056082;28;45452;-42
2023/09/26 01:57:33;;;;;;;;;7.67;7.00;;;;;18.38;65.21;101613.19;5056442;28;45554;-47
2023/09/26 02:00:00;;;;;;;;;8.67;6.33;;;;;18.34;65.08;101604.63;5055659;28;45423;-43
2023/09/26 02:02:26;;;;;;;;;9.25;5.00;;;;;18.32;64.99;101612.03;5055725;28;45477;-44
2023/09/26 02:04:52;;;;;;;;;11.33;8.67;;;;;18.26;65.20;101609.22;5055758;28;45351;-43
2023/09/26 02:07:17;;;;;;;;;6.33;6.00;;;;;18.22;65.11;101621.34;5056120;28;45302;-43
2023/09/26 02:09:42;;;;;;;;;6.00;5.33;;;;;18.11;65.36;101618.03;5055900;28;46113;-43
2023/09/26 02:12:08;;;;;;;;;13.67;8.67;;;;;18.24;65.18;101627.41;5055737;28;45442;-43
2023/09/26 02:14:33;;;;;;;;;7.67;5.67;;;;;18.23;65.14;101628.41;5055912;28;45318;-44
2023/09/26 02:16:58;;;;;;;;;8.00;5.00;;;;;18.23;64.94;101628.41;5056081;28;45379;-46
2023/09/26 02:19:24;;;;;;;;;10.00;5.75;;;;;18.20;65.09;101625.06;5055647;28;47946;-42
2023/09/26 02:21:49;;;;;;;;;9.33;8.00;;;;;18.20;64.85;101622.38;5055794;28;45410;-45
2023/09/26 02:24:14;;;;;;;;;8.33;6.67;;;;;18.20;64.91;101622.38;5055112;28;45441;-46
2023/09/26 02:26:40;;;;;;;;;6.67;5.00;;;;;18.19;65.09;101615.28;5058491;28;45452;-45
2023/09/26 02:29:05;;;;;;;;;8.67;5.00;;;;;18.16;64.96;101607.59;5059089;28;46145;-43
2023/09/26 02:31:30;;;;;;;;;6.67;5.67;;;;;18.17;65.14;101606.56;5059423;28;45504;-43
2023/09/26 02:33:56;;;;;;;;;10.00;6.33;;;;;18.16;64.95;101606.72;5059047;28;45393;-43
2023/09/26 02:36:21;;;;;;;;;11.00;6.00;;;;;18.15;65.06;101608.56;5059276;28;45430;-44
2023/09/26 02:38:47;;;;;;;;;11.67;6.00;;;;;18.13;65.07;101610.63;5058738;28;46143;-42
2023/09/26 02:41:12;;;;;;;;;8.67;7.00;;;;;18.15;64.78;101605.06;5059146;28;45482;-43
2023/09/26 02:43:38;;;;;;;;;7.00;5.67;;;;;18.16;64.78;101615.66;5059195;28;45158;-43
2023/09/26 02:46:03;;;;;;;;;5.00;2.33;;;;;18.18;64.62;101612.78;5058989;28;45262;-43
2023/09/26 02:48:28;;;;;;;;;6.67;5.00;;;;;18.17;65.02;101613.81;5058941;28;45350;-42
2023/09/26 02:51:04;;;;;;;;;7.00;7.00;;;;;18.15;64.93;101603.19;5058858;28;45764;-43
2023/09/26 02:53:30;;;;;;;;;9.67;6.33;;;;;18.13;64.15;101597.16;5058261;28;45240;-42
2023/09/26 02:55:55;;;;;;;;;5.33;5.33;;;;;18.13;64.17;101590.94;5059269;28;45248;-42
2023/09/26 02:58:20;;;;;;;;;9.33;7.00;;;;;18.09;64.03;101587.75;5058567;28;45371;-42
2023/09/26 03:00:49;;;;;;;;;7.00;7.00;;;;;18.11;64.01;101587.56;5058860;28;45330;-43
2023/09/26 03:03:14;;;;;;;;;6.67;6.33;;;;;18.08;64.13;101578.00;5058597;28;45379;-43
2023/09/26 03:05:39;;;;;;;;;10.00;7.33;;;;;18.05;63.98;101574.81;5059021;28;45347;-45
2023/09/26 03:08:06;;;;;;;;;7.33;6.00;;;;;18.05;63.99;101578.34;5058522;28;45311;-43
2023/09/26 03:10:31;;;;;;;;;4.67;4.00;;;;;18.06;64.09;101582.72;5058627;28;45469;-43
2023/09/26 03:12:56;;;;;;;;;19.00;11.67;;;;;18.08;64.04;101577.16;5057348;28;45386;-44
2023/09/26 03:15:22;;;;;;;;;12.00;8.00;;;;;18.10;63.86;101581.34;5058785;28;45478;-43
2023/09/26 03:17:47;;;;;;;;;12.33;8.33;;;;;18.11;63.93;101571.41;5058685;28;45328;-43
2023/09/26 03:20:15;;;;;;;;;5.33;4.00;;;;;18.11;63.82;101569.56;5058172;28;45541;-42
2023/09/26 03:22:41;;;;;;;;;7.00;7.00;;;;;18.12;63.88;101571.25;5057543;28;45426;-43
2023/09/26 03:25:06;;;;;;;;;7.33;6.67;;;;;18.13;63.59;101564.84;5058763;28;45317;-44
2023/09/26 03:27:32;;;;;;;;;7.00;7.00;;;;;18.10;63.53;101565.19;5058370;28;46079;-43
2023/09/26 03:29:57;;;;;;;;;6.33;5.33;;;;;18.11;63.64;101571.41;5057996;28;45315;-43
2023/09/26 03:32:22;;;;;;;;;8.00;6.00;;;;;18.11;63.80;101580.31;5058568;28;45448;-43
2023/09/26 03:34:48;;;;;;;;;5.00;5.00;;;;;18.03;63.52;101564.19;5057072;28;45582;-43
2023/09/26 03:37:13;;;;;;;;;8.00;6.00;;;;;18.08;63.73;101574.47;5056903;28;46502;-42
2023/09/26 03:39:38;;;;;;;;;5.00;5.00;;;;;18.04;63.45;101573.16;5039034;28;45419;-42
2023/09/26 03:42:04;;;;;;;;;5.50;5.50;;;;;18.01;63.29;101571.63;5058204;28;45452;-42
2023/09/26 03:44:29;;;;;;;;;7.67;7.00;;;;;18.00;63.46;101580.72;5058218;28;45481;-42
2023/09/26 03:46:55;;;;;;;;;9.33;7.67;;;;;17.97;63.24;101578.38;5057974;28;46254;-42
2023/09/26 03:49:20;;;;;;;;;6.00;5.00;;;;;17.94;63.61;101576.88;5058056;28;45465;-44
2023/09/26 03:51:45;;;;;;;;;5.00;5.00;;;;;17.94;63.50;101578.72;5057956;28;46378;-43
2023/09/26 03:54:11;;;;;;;;;5.33;5.33;;;;;17.90;63.46;101578.22;5057797;28;45305;-43
2023/09/26 03:56:36;;;;;;;;;7.00;7.00;;;;;17.91;63.64;101573.72;5057488;28;46927;-43
2023/09/26 03:59:01;;;;;;;;;7.67;7.00;;;;;17.86;63.79;101574.19;5057776;28;45364;-43
2023/09/26 04:01:27;;;;;;;;;7.00;5.33;;;;;17.85;63.92;101569.00;5058144;28;45397;-43
2023/09/26 04:03:53;;;;;;;;;5.00;4.67;;;;;17.86;63.82;101573.38;5057731;28;45339;-44
2023/09/26 04:06:18;;;;;;;;;9.00;7.00;;;;;17.76;63.63;101553.91;5058036;28;46184;-42
2023/09/26 04:08:44;;;;;;;;;9.00;7.33;;;;;17.65;63.83;101541.63;5057925;28;45323;-46
2023/09/26 04:11:16;;;;;;;;;10.00;8.00;;;;;17.78;63.77;101566.19;5057736;28;45344;-42
2023/09/26 04:13:42;;;;;;;;;11.67;9.67;;;;;17.76;63.81;101559.28;5040177;28;45407;-44
2023/09/26 04:16:09;;;;;;;;;8.00;7.67;;;;;17.71;63.91;101557.94;5057299;28;46207;-45
2023/09/26 04:18:34;;;;;;;;;7.33;7.00;;;;;17.71;64.02;101551.72;5039217;28;45337;-43
2023/09/26 04:21:04;;;;;;;;;12.00;9.67;;;;;17.66;64.00;101546.03;5057263;28;45371;-43
2023/09/26 04:23:30;;;;;;;;;11.33;11.33;;;;;17.65;64.08;101552.38;5057492;28;45382;-45
2023/09/26 04:25:55;;;;;;;;;10.33;9.67;;;;;17.55;64.27;101533.75;5056256;28;46312;-43
2023/09/26 04:28:20;;;;;;;;;8.67;8.33;;;;;17.58;64.38;101543.34;5039114;28;49070;-43
2023/09/26 04:30:46;;;;;;;;;11.33;10.33;;;;;17.53;64.57;101541.19;5057167;28;45399;-44
2023/09/26 04:33:11;;;;;;;;;10.33;9.33;;;;;17.53;64.51;101535.81;5057456;28;45379;-43
2023/09/26 04:35:36;;;;;;;;;13.00;10.00;;;;;17.52;64.58;101544.03;5056574;28;46261;-42
2023/09/26 04:38:03;;;;;;;;;17.00;13.67;;;;;17.46;64.53;101538.31;5056999;28;45249;-44
2023/09/26 04:40:28;;;;;;;;;7.33;7.00;;;;;17.47;64.69;101552.63;5057007;28;45308;-44
2023/09/26 04:42:53;;;;;;;;;11.67;9.67;;;;;17.43;64.88;101544.03;5038629;28;45452;-43
2023/09/26 04:45:19;;;;;;;;;14.33;11.67;;;;;17.41;64.84;101543.41;5056937;28;46114;-41
2023/09/26 04:47:44;;;;;;;;;19.00;14.67;;;;;17.43;64.66;101545.91;5038927;28;45317;-42
2023/09/26 04:50:10;;;;;;;;;11.00;9.33;;;;;17.48;64.58;101548.06;5056619;28;46645;-43
2023/09/26 04:52:36;;;;;;;;;13.67;12.67;;;;;17.48;64.91;101540.84;5056954;28;45388;-42
2023/09/26 04:55:02;;;;;;;;;13.00;10.67;;;;;17.49;64.91;101536.28;5056645;28;46936;-43
2023/09/26 04:57:27;;;;;;;;;9.67;9.00;;;;;17.46;64.70;101535.63;5055692;28;45361;-42
2023/09/26 04:59:53;;;;;;;;;15.67;11.33;;;;;17.47;64.85;101536.47;5038525;28;45405;-42
2023/09/26 05:02:19;;;;;;;;;20.33;14.33;;;;;17.48;65.18;101545.38;5056969;28;45452;-42
2023/09/26 05:04:48;;;;;;;;;14.00;11.33;;;;;17.48;64.82;101534.63;5056676;28;46038;-43
2023/09/26 05:07:13;;;;;;;;;15.67;13.00;;;;;17.44;64.90;101534.13;5056467;28;45359;-45
2023/09/26 05:09:38;;;;;;;;;15.00;13.33;;;;;17.47;65.30;101528.41;5056829;28;45268;-42
2023/09/26 05:12:04;;;;;;;;;13.00;13.00;;;;;17.45;65.09;101522.38;5056827;28;45303;-43
2023/09/26 05:14:29;;;;;;;;;13.67;13.67;;;;;17.43;64.77;101525.22;5056511;28;46359;-43
2023/09/26 05:16:54;;;;;;;;;19.67;14.00;;;;;17.41;64.98;101527.25;5056493;28;45367;-44
2023/09/26 05:19:20;;;;;;;;;16.67;14.00;;;;;17.37;65.19;101533.16;5056472;28;45625;-42
2023/09/26 05:21:45;;;;;;;;;13.67;12.67;;;;;17.36;64.99;101529.63;5056604;28;45403;-44
2023/09/26 05:24:11;;;;;;;;;15.00;13.33;;;;;17.36;65.13;101518.00;5055876;28;53478;-45
2023/09/26 05:26:37;;;;;;;;;14.33;11.67;;;;;17.37;65.22;101530.47;5056413;28;45353;-49
2023/09/26 05:29:02;;;;;;;;;15.33;11.67;;;;;17.34;65.17;101530.81;5056254;28;45337;-46
2023/09/26 05:31:32;;;;;;;;;13.00;10.00;;;;;17.34;65.34;101518.19;5056644;28;45327;-45
2023/09/26 05:33:58;;;;;;;;;14.33;12.00;;;;;17.37;65.17;101527.78;5056719;28;46883;-43
2023/09/26 05:36:23;;;;;;;;;8.33;5.00;;;;;17.37;65.11;101522.41;5056521;28;45332;-41
2023/09/26 05:38:49;;;;;;;;;14.00;14.00;;;;;17.36;64.91;101534.13;5056728;28;45383;-44
2023/09/26 05:41:14;;;;;;;;;16.33;12.00;;;;;17.32;65.13;101532.81;5057169;28;45284;-42
2023/09/26 05:43:40;;;;;;;;;13.33;13.00;;;;;17.31;65.29;101526.59;5056448;28;45382;-42
2023/09/26 05:46:05;;;;;;;;;16.00;14.33;;;;;17.22;65.41;101511.50;5055840;28;45350;-42
2023/09/26 05:48:31;;;;;;;;;17.67;17.00;;;;;17.30;65.27;101522.22;5056322;28;45312;-43
2023/09/26 05:51:00;;;;;;;;;14.00;12.67;;;;;17.31;65.31;101515.00;5056268;28;45308;-41
2023/09/26 05:53:26;;;;;;;;;15.33;11.67;;;;;17.30;65.35;101526.78;5055091;28;45448;-47
2023/09/26 05:55:52;;;;;;;;;15.67;14.00;;;;;17.32;65.15;101524.75;5055699;28;45426;-41
2023/09/26 05:58:19;;;;;;;;;15.00;13.00;;;;;17.34;65.38;101528.09;5055985;28;45439;-41
2023/09/26 06:00:46;;;;;;;;;15.33;13.00;;;;;17.33;65.17;101534.50;5057456;28;45218;-43
2023/09/26 06:03:11;;;;;;;;;16.00;13.33;;;;;17.37;65.22;101538.53;5059227;28;46206;-43
2023/09/26 06:05:37;;;;;;;;;14.67;11.67;;;;;17.41;65.25;101521.88;5059308;28;45390;-47
2023/09/26 06:08:03;;;;;;;;;15.67;15.00;;;;;17.47;64.93;101517.66;5059740;28;45581;-43
2023/09/26 06:10:29;;;;;;;;;16.67;14.00;;;;;17.48;64.87;101522.00;5059833;28;45282;-49
2023/09/26 06:12:55;;;;;;;;;19.33;14.33;;;;;17.39;64.83;101491.59;5059473;28;45355;-41
2023/09/26 06:15:20;;;;;;;;;17.67;13.67;;;;;17.54;64.54;101510.56;5059335;28;45415;-41
2023/09/26 06:17:46;;;;;;;;;16.00;13.00;;;;;17.63;64.60;101522.13;5059382;28;45844;-43
2023/09/26 06:20:11;;;;;;;;;14.00;13.00;;;;;17.67;64.63;101510.84;5059340;28;45366;-44
2023/09/26 06:22:37;;;;;;;;;15.67;14.00;;;;;17.74;64.24;101518.22;5059173;28;45458;-42
2023/09/26 06:25:04;;;;;;;;;16.33;14.00;;;;;17.77;63.82;101516.03;5059110;28;45394;-42
2023/09/26 06:27:35;;;;;;;;;18.00;14.67;;;;;17.79;63.96;101514.03;5059315;28;45381;-43
2023/09/26 06:30:02;;;;;;;;;17.00;12.67;;;;;17.90;63.81;101526.25;5059637;28;45458;-42
2023/09/26 06:32:27;;;;;;;;;15.00;12.33;;;;;17.92;63.61;101521.53;5058725;28;46421;-42
2023/09/26 06:34:57;;;;;;;;;13.33;10.33;;;;;17.99;63.60;101525.19;5058875;28;48413;-40
2023/09/26 06:37:23;;;;;;;;;15.33;15.33;;;;;18.03;63.40;101529.22;5058962;28;45501;-42
2023/09/26 06:39:48;;;;;;;;;16.67;14.67;;;;;18.08;63.32;101520.63;5059160;28;45415;-41
2023/09/26 06:42:13;;;;;;;;;18.00;16.33;;;;;18.12;63.13;101516.56;5058998;28;45431;-43
2023/09/26 06:44:39;;;;;;;;;15.33;13.67;;;;;18.15;62.78;101521.56;5058883;28;45398;-43
2023/09/26 06:47:04;;;;;;;;;20.33;15.33;;;;;18.18;63.00;101532.84;5058720;28;45381;-42
2023/09/26 06:49:29;;;;;;;;;21.00;14.33;;;;;18.14;62.79;101517.22;5058996;28;45410;-44
2023/09/26 06:51:55;;;;;;;;;19.00;14.00;;;;;18.25;62.62;101524.06;5058737;28;46050;-48
2023/09/26 06:54:20;;;;;;;;;18.33;15.00;;;;;18.27;62.90;101525.53;5058959;28;45402;-42
2023/09/26 06:56:46;;;;;;;;;16.67;16.67;;;;;18.32;62.79;101525.00;5058759;28;45413;-42
2023/09/26 06:59:11;;;;;;;;;15.67;14.33;;;;;18.34;62.55;101520.28;5058817;28;45351;-44
2023/09/26 07:01:36;;;;;;;;;15.00;14.33;;;;;18.43;62.64;101519.22;5058614;28;45419;-41
2023/09/26 07:04:02;;;;;;;;;15.67;13.00;;;;;18.48;62.13;101527.59;5057454;28;45390;-41
2023/09/26 07:06:27;;;;;;;;;12.00;12.00;;;;;18.45;62.23;101519.84;5058646;28;45558;-42
2023/09/26 07:08:55;;;;;;;;;13.67;12.33;;;;;18.52;61.89;101522.69;5058882;28;45440;-42
2023/09/26 07:11:22;;;;;;;;;13.67;12.33;;;;;18.60;61.83;101528.84;5040398;28;45306;-44
2023/09/26 07:13:48;;;;;;;;;15.33;11.33;;;;;18.68;61.53;101536.88;5057500;28;45328;-43
2023/09/26 07:16:13;;;;;;;;;13.50;10.50;;;;;18.76;60.99;101538.69;5058630;28;45786;-44
2023/09/26 07:18:38;;;;;;;;;12.00;12.00;;;;;18.86;60.56;101527.66;5058309;28;45444;-42
2023/09/26 07:21:07;;;;;;;;;14.33;10.33;;;;;18.96;60.28;101522.84;5058023;28;46561;-42
2023/09/26 07:23:35;;;;;;;;;15.67;12.33;;;;;19.12;60.16;101522.69;5058188;28;45277;-42
2023/09/26 07:26:14;;;;;;;;;13.67;11.00;;;;;19.23;59.46;101525.97;5058249;28;45362;-42
2023/09/26 07:28:41;;;;;;;;;13.33;10.33;;;;;19.31;58.89;101526.72;5058554;28;45439;-42
2023/09/26 07:31:08;;;;;;;;;16.00;8.00;;;;;19.43;58.66;101537.91;5057756;28;45352;-43
2023/09/26 07:33:35;;;;;;;;;10.00;10.00;;;;;19.51;58.12;101539.63;5058166;28;45251;-43
2023/09/26 07:36:02;;;;;;;;;7.33;7.33;;;;;19.55;57.85;101549.91;5058167;28;45378;-42
2023/09/26 07:38:27;;;;;;;;;13.67;12.00;;;;;19.63;57.61;101557.06;5058302;28;45497;-43
2023/09/26 07:40:53;;;;;;;;;8.50;8.50;;;;;19.71;57.64;101558.84;5040736;28;45474;-43
2023/09/26 07:43:18;;;;;;;;;15.67;11.67;;;;;19.77;57.17;101552.72;5058408;28;45387;-43
2023/09/26 07:45:43;;;;;;;;;10.67;10.00;;;;;19.80;57.07;101538.81;5058533;28;45400;-50
2023/09/26 07:48:10;;;;;;;;;12.00;11.00;;;;;19.75;57.08;101541.25;5058187;28;46114;-46
2023/09/26 07:50:35;;;;;;;;;10.50;9.75;;;;;19.71;57.09;101537.25;5057892;28;45393;-43
2023/09/26 07:53:02;;;;;;;;;11.00;10.00;;;;;19.85;56.58;101549.91;5057792;28;45363;-43
2023/09/26 07:55:28;;;;;;;;;15.33;12.67;;;;;19.75;56.94;101527.75;5057919;28;45446;-53
2023/09/26 07:57:53;;;;;;;;;9.00;9.00;;;;;19.87;56.84;101550.56;5058300;28;45351;-44
2023/09/26 08:00:19;;;;;;;;;11.00;11.00;;;;;19.81;56.76;101535.94;5057537;28;47113;-44
2023/09/26 08:02:45;;;;;;;;;8.00;8.00;;;;;19.88;56.51;101554.91;5057793;28;45231;-42
2023/09/26 08:05:11;;;;;;;;;13.00;10.00;;;;;19.90;56.62;101552.88;5057558;28;45340;-43
2023/09/26 08:07:38;;;;;;;;;10.75;10.75;;;;;19.87;56.42;101553.25;5058035;28;45181;-45
2023/09/26 08:10:04;;;;;;;;;10.75;8.75;;;;;19.92;56.55;101562.44;5057459;28;46614;-42
2023/09/26 08:12:30;;;;;;;;;9.25;9.25;;;;;19.96;56.25;101565.63;5057658;28;45444;-42
2023/09/26 08:14:56;;;;;;;;;9.50;8.00;;;;;20.07;56.53;101551.63;5057786;28;45398;-42
2023/09/26 08:17:22;;;;;;;;;10.25;9.25;;;;;20.19;55.75;101544.72;5057870;28;45630;-44
2023/09/26 08:19:47;;;;;;;;;8.75;8.75;;;;;20.41;55.90;101531.22;5057625;28;46005;-42
2023/09/26 08:22:13;;;;;;;;;11.00;8.00;;;;;20.90;54.41;101550.25;5056972;28;51426;-46
2023/09/26 08:24:39;;;;;;;;;9.25;9.00;;;;;21.40;53.68;101544.78;5057319;28;45328;-43
2023/09/26 08:27:05;;;;;;;;;9.00;9.00;;;;;21.61;52.41;101539.28;5057528;28;45445;-45
2023/09/26 08:29:30;;;;;;;;;8.50;8.00;;;;;21.80;52.74;101550.44;5057514;28;45742;-42
2023/09/26 08:31:56;;;;;;;;;10.00;7.00;;;;;21.88;52.06;101559.25;5057495;28;45355;-42
2023/09/26 08:34:21;;;;;;;;;9.75;9.75;;;;;21.97;51.73;101562.59;5057234;28;45327;-47
2023/09/26 08:36:47;;;;;;;;;9.75;7.75;;;;;22.03;52.04;101560.94;5057312;28;45259;-44
2023/09/26 08:39:12;;;;;;;;;7.25;7.25;;;;;21.98;51.72;101542.59;5056847;28;46149;-43
2023/09/26 08:41:38;;;;;;;;;10.00;8.50;;;;;22.08;51.32;101553.91;5057320;28;45305;-44
2023/09/26 08:44:03;;;;;;;;;8.00;8.00;;;;;22.23;51.09;101542.09;5057168;28;45564;-42
2023/09/26 08:46:29;;;;;;;;;9.75;9.75;;;;;22.32;51.13;101535.44;5057050;28;45356;-43
2023/09/26 08:48:55;;;;;;;;;9.50;8.75;;;;;22.30;50.52;101526.69;5057270;28;46106;-43
2023/09/26 08:51:21;;;;;;;;;8.00;6.80;;;;;22.20;51.29;101521.63;5056911;28;45403;-42
2023/09/26 08:53:46;;;;;;;;;7.50;7.25;;;;;22.29;50.93;101530.41;5057014;28;45312;-42
2023/09/26 08:56:12;;;;;;;;;10.25;7.00;;;;;22.33;50.55;101535.25;5056991;28;45393;-42
2023/09/26 08:58:41;;;;;;;;;6.50;6.50;;;;;22.40;50.57;101535.25;5056848;28;46187;-44
2023/09/26 09:01:07;;;;;;;;;7.40;7.00;;;;;22.46;50.33;101534.44;5056634;28;45327;-42
2023/09/26 09:03:32;;;;;;;;;9.75;7.75;;;;;22.53;50.20;101534.44;5056974;28;45387;-44
2023/09/26 09:05:58;;;;;;;;;8.75;6.75;;;;;22.49;50.06;101520.44;5057198;28;45366;-41
2023/09/26 09:08:23;;;;;;;;;6.75;6.75;;;;;22.63;50.20;101524.88;5056594;28;46051;-43
2023/09/26 09:10:51;;;;;;;;;9.00;8.00;;;;;22.78;49.78;101530.06;5056535;28;45412;-46
2023/09/26 09:13:27;;;;;;;;;16.20;9.80;;;;;22.72;49.78;101530.91;5056836;28;45447;-44
2023/09/26 09:16:12;;;;;;;;;8.75;7.00;;;;;22.77;50.11;101531.13;5056132;28;45609;-48
2023/09/26 09:18:41;;;;;;;;;6.25;6.25;;;;;22.87;49.74;101517.13;5056349;28;45913;-43
2023/09/26 09:21:27;;;;;;;;;8.60;7.60;;;;;23.11;49.41;101513.81;5056279;28;45324;-42
2023/09/26 09:23:54;;;;;;;;;7.80;7.00;;;;;23.27;48.98;101501.69;5055675;28;45346;-44
2023/09/26 09:26:21;;;;;;;;;12.75;7.00;;;;;23.65;48.01;101506.41;5056678;28;45458;-43
2023/09/26 09:28:48;;;;;;;;;7.80;6.80;;;;;23.95;47.03;101525.72;5056132;28;46348;-42
2023/09/26 09:31:15;;;;;;;;;11.60;9.20;;;;;24.09;47.16;101527.31;5056209;28;45463;-42
2023/09/26 09:33:47;;;;;;;;;12.20;9.00;;;;;24.37;47.44;101523.41;5056395;28;45221;-46
2023/09/26 09:36:13;;;;;;;;;9.50;8.50;;;;;24.76;45.43;101497.81;5055286;28;45411;-42
2023/09/26 09:38:39;;;;;;;;;8.40;6.80;;;;;25.35;45.22;101501.88;5056100;28;45381;-42
2023/09/26 09:41:06;;;;;;;;;8.80;7.60;;;;;25.70;45.15;101511.31;5056219;28;45305;-42
2023/09/26 09:43:31;;;;;;;;;8.40;7.20;;;;;26.06;44.06;101503.13;5056173;28;45396;-42
2023/09/26 09:46:04;;;;;;;;;10.50;8.75;;;;;26.64;43.20;101514.47;5056587;28;45281;-45
2023/09/26 09:48:35;;;;;;;;;10.00;8.60;;;;;27.17;41.73;101514.41;5056328;28;46435;-46
2023/09/26 09:51:03;;;;;;;;;5.80;5.80;;;;;27.35;41.60;101506.09;5056057;28;45392;-43
2023/09/26 09:53:33;;;;;;;;;7.60;7.60;;;;;27.38;41.15;101514.84;5056118;28;45529;-43
2023/09/26 09:56:04;;;;;;;;;8.00;8.00;;;;;27.30;41.43;101507.84;5056563;28;45782;-42
2023/09/26 09:58:33;;;;;;;;;10.40;6.80;;;;;27.38;41.11;101504.75;5055781;28;45344;-43
2023/09/26 10:00:59;;;;;;;;;6.40;6.40;;;;;27.39;40.78;101508.31;5037704;28;45335;-43
2023/09/26 10:03:26;;;;;;;;;7.80;6.60;;;;;27.41;40.92;101509.75;5038349;28;45469;-42
2023/09/26 10:05:52;;;;;;;;;9.00;8.00;;;;;27.47;41.12;101491.53;5056168;28;45379;-47
2023/09/26 10:08:19;;;;;;;;;9.20;8.40;;;;;27.54;40.82;101498.53;5055601;28;47246;-44
2023/09/26 10:10:45;;;;;;;;;12.00;8.80;;;;;27.56;40.27;101493.69;5055687;28;45360;-42
2023/09/26 10:13:11;;;;;;;;;8.00;8.00;;;;;27.83;39.89;101512.28;5056091;28;45336;-42
2023/09/26 10:16:17;;;;;;;;;8.60;7.00;;;;;28.29;39.85;101527.69;5055890;28;45234;-46
2023/09/26 10:18:44;;;;;;;;;10.60;8.00;;;;;28.65;39.42;101522.84;4993568;28;46102;-41
2023/09/26 10:21:23;;;;;;;;;10.20;7.80;;;;;28.96;39.24;101509.66;4993551;28;45451;-44
2023/09/26 10:24:13;;;;;;;;;5.40;5.40;;;;;29.40;38.30;101507.00;4993470;28;45808;-42
2023/09/26 10:26:49;;;;;;;;;8.40;7.00;;;;;29.68;37.31;101495.06;4993545;28;45398;-43
2023/09/26 10:29:14;;;;;;;;;9.40;7.00;;;;;29.96;36.87;101478.41;4993518;28;46393;-43
2023/09/26 10:31:41;;;;;;;;;9.50;6.75;;;;;30.19;36.34;101471.78;4993573;28;45896;-47
2023/09/26 10:34:07;;;;;;;;;12.20;9.00;;;;;30.62;35.94;101486.41;4993603;28;45306;-43
2023/09/26 10:36:33;;;;;;;;;12.25;9.00;;;;;31.25;35.80;101505.81;4993694;28;45460;-43
2023/09/26 10:39:07;;;;;;;;;10.60;7.20;;;;;31.95;34.67;101499.03;4993186;28;46332;-44
2023/09/26 10:41:33;;;;;;;;;11.60;8.60;;;;;32.50;32.44;101502.16;4993355;28;45498;-44
2023/09/26 10:43:59;;;;;;;;;7.00;5.00;;;;;32.98;33.05;101473.16;4993551;28;45320;-43
2023/09/26 10:46:27;;;;;;;;;11.60;10.00;;;;;33.93;31.66;101479.69;4994285;28;45580;-44
2023/09/26 10:48:52;;;;;;;;;7.00;7.00;;;;;34.84;31.05;101471.81;4996750;28;45341;-52
2023/09/26 10:51:18;;;;;;;;;8.50;8.50;;;;;35.99;28.37;101478.19;4996663;28;45297;-49
2023/09/26 10:53:47;;;;;;;;;9.25;9.25;;;;;37.15;30.54;101470.91;5016472;28;46043;-49
2023/09/26 10:56:13;;;;;;;;;8.60;6.80;;;;;38.39;24.83;101482.59;5058884;28;45330;-42
2023/09/26 10:58:40;;;;;;;;;9.75;9.75;;;;;39.38;24.37;101482.44;5056326;28;47248;-47
2023/09/26 11:01:08;;;;;;;;;11.60;9.80;;;;;40.49;23.19;101474.44;5058750;28;45197;-52
2023/09/26 11:03:34;;;;;;;;;12.00;10.00;;;;;41.66;22.32;101474.91;5041116;28;45261;-43
2023/09/26 11:05:59;;;;;;;;;11.00;9.00;;;;;42.55;20.79;101463.41;5059014;28;45347;-43
2023/09/26 11:08:24;;;;;;;;;11.75;8.75;;;;;43.41;20.54;101457.88;5058497;28;46039;-46
2023/09/26 11:10:50;;;;;;;;;10.25;7.50;;;;;44.11;20.06;101451.97;5058818;28;45437;-44
2023/09/26 11:13:17;;;;;;;;;7.75;6.75;;;;;44.49;18.88;101452.22;5058858;28;45383;-42
2023/09/26 11:15:45;;;;;;;;;10.00;8.80;;;;;45.05;18.36;101451.28;5057895;28;45531;-47
2023/09/26 11:18:13;;;;;;;;;8.00;6.80;;;;;45.09;21.66;101449.34;5040078;28;46004;-50